Time;durP1;ratioP1;P1;durP2;ratioP2;P2;SDS_P1;SDS_P2;PMS_P1;PMS_P2;Temp;Humidity;BMP_temperature;BMP_pressure;BME280_temperature;BME280_humidity;BME280_pressure;Samples;Min_cycle;Max_cycle;Signal;HPM_P1;HPM_P2
2023/01/05 00:00:26;;;;;;;27.65;7.57;;;10.80;99.90;;;;;;5071931;28;20041;-62
2023/01/05 00:02:51;;;;;;;34.95;8.25;;;10.70;99.90;;;;;;5062603;28;20360;-62
2023/01/05 00:05:17;;;;;;;25.63;7.05;;;10.70;99.90;;;;;;5066244;28;20044;-63
2023/01/05 00:07:43;;;;;;;32.80;9.13;;;10.80;99.90;;;;;;5045582;28;20041;-62
2023/01/05 00:22:29;;;;;;;34.28;7.63;;;10.70;99.90;;;;;;5066636;28;20045;-62
2023/01/05 00:23:58;;;;;;;30.95;7.60;;;10.60;99.90;;;;;;5066376;28;20056;-64
2023/01/05 00:26:23;;;;;;;31.17;7.45;;;10.60;99.90;;;;;;5065396;28;20041;-62
2023/01/05 00:28:49;;;;;;;26.00;8.25;;;10.60;99.90;;;;;;5071996;28;20076;-63
2023/01/05 00:31:15;;;;;;;36.00;8.27;;;10.60;99.90;;;;;;5085396;28;20040;-63
2023/01/05 00:33:40;;;;;;;30.45;7.93;;;10.60;99.90;;;;;;5088729;28;20032;-63
2023/01/05 00:36:09;;;;;;;30.60;8.25;;;10.70;99.90;;;;;;5088816;28;20102;-60
2023/01/05 00:38:35;;;;;;;33.10;8.88;;;10.60;99.90;;;;;;5082875;28;20043;-63
2023/01/05 00:41:00;;;;;;;33.65;8.63;;;10.60;99.90;;;;;;5086914;28;20123;-59
2023/01/05 00:43:26;;;;;;;37.15;8.63;;;10.60;99.90;;;;;;5092288;28;20115;-60
2023/01/05 00:45:51;;;;;;;31.15;7.97;;;10.60;99.90;;;;;;5088881;28;20060;-61
2023/01/05 00:48:17;;;;;;;29.52;8.68;;;10.60;99.90;;;;;;5088808;28;20487;-62
2023/01/05 00:50:44;;;;;;;32.05;8.02;;;10.60;99.90;;;;;;5089138;28;20457;-62
2023/01/05 00:53:10;;;;;;;28.88;8.52;;;10.50;99.90;;;;;;5094499;28;20044;-62
2023/01/05 00:55:35;;;;;;;34.25;7.85;;;10.50;99.90;;;;;;5088581;28;20378;-62
2023/01/05 00:58:01;;;;;;;29.08;7.82;;;10.50;99.90;;;;;;5072400;28;20036;-60
2023/01/05 01:00:26;;;;;;;26.48;6.80;;;10.60;99.90;;;;;;5086189;28;20337;-60
2023/01/05 01:02:52;;;;;;;33.83;7.47;;;10.50;99.90;;;;;;5085131;28;20145;-62
2023/01/05 01:05:18;;;;;;;32.72;7.72;;;10.50;99.90;;;;;;5089580;28;20433;-63
2023/01/05 01:07:43;;;;;;;27.00;6.95;;;10.50;99.90;;;;;;5083638;28;20166;-63
2023/01/05 01:10:10;;;;;;;30.83;6.82;;;10.50;99.90;;;;;;5088459;28;20051;-62
2023/01/05 01:12:36;;;;;;;27.10;7.43;;;10.50;99.90;;;;;;5090169;28;20035;-63
2023/01/05 01:15:02;;;;;;;32.00;7.35;;;10.50;99.90;;;;;;5084643;28;20049;-62
2023/01/05 01:17:29;;;;;;;28.58;7.25;;;10.40;99.90;;;;;;5091637;28;20055;-61
2023/01/05 01:19:55;;;;;;;28.77;7.72;;;10.40;99.90;;;;;;5088348;28;20046;-62
2023/01/05 01:22:20;;;;;;;26.38;6.95;;;10.40;99.90;;;;;;5091072;28;20114;-63
2023/01/05 01:24:46;;;;;;;28.92;7.40;;;10.30;99.90;;;;;;5090822;28;20095;-63
2023/01/05 01:27:11;;;;;;;24.92;6.63;;;10.30;99.90;;;;;;5088040;28;20109;-63
2023/01/05 01:29:43;;;;;;;27.02;6.82;;;10.30;99.90;;;;;;5070873;28;20056;-60
2023/01/05 01:32:09;;;;;;;32.00;7.72;;;10.30;99.90;;;;;;5070924;28;20465;-61
2023/01/05 01:34:34;;;;;;;27.60;7.80;;;10.40;99.90;;;;;;5069208;28;20086;-63
2023/01/05 01:37:00;;;;;;;26.90;6.90;;;10.40;99.90;;;;;;5067706;28;20037;-63
2023/01/05 01:39:26;;;;;;;29.90;6.93;;;10.40;99.90;;;;;;5067446;28;20429;-62
2023/01/05 01:41:51;;;;;;;30.88;7.40;;;10.30;99.90;;;;;;5046674;28;20041;-62
2023/01/05 01:44:54;;;;;;;27.42;7.13;;;10.30;99.90;;;;;;5059141;28;20044;-64
2023/01/05 01:47:42;;;;;;;26.75;6.57;;;10.30;99.90;;;;;;5070239;28;20062;-62
2023/01/05 01:50:16;;;;;;;27.10;7.28;;;10.30;99.90;;;;;;5070289;28;20380;-61
2023/01/05 01:52:44;;;;;;;25.10;6.85;;;10.30;99.90;;;;;;5063862;28;20080;-64
2023/01/05 01:55:10;;;;;;;26.17;7.22;;;10.30;99.90;;;;;;5064073;28;20040;-60
2023/01/05 01:57:37;;;;;;;25.88;5.88;;;10.30;99.90;;;;;;5070226;28;20441;-63
2023/01/05 02:00:08;;;;;;;27.23;6.60;;;10.30;99.90;;;;;;5067136;28;20086;-62
2023/01/05 02:02:33;;;;;;;28.30;6.25;;;10.30;99.90;;;;;;5063226;28;20048;-63
2023/01/05 02:05:05;;;;;;;28.80;7.70;;;10.40;99.90;;;;;;5062975;28;20040;-60
2023/01/05 02:07:39;;;;;;;26.67;7.40;;;10.40;99.90;;;;;;5064090;28;20048;-63
2023/01/05 02:10:06;;;;;;;29.73;6.93;;;10.40;99.90;;;;;;5070599;28;20453;-62
2023/01/05 02:12:41;;;;;;;29.77;6.80;;;10.40;99.90;;;;;;5072279;28;20270;-63
2023/01/05 02:15:16;;;;;;;25.52;7.15;;;10.30;99.90;;;;;;5071587;28;20131;-61
2023/01/05 02:18:16;;;;;;;28.63;6.80;;;10.30;99.90;;;;;;5067242;28;20079;-61
2023/01/05 02:20:53;;;;;;;31.75;7.68;;;10.30;99.90;;;;;;5060790;28;20045;-60
2023/01/05 02:23:37;;;;;;;28.67;8.05;;;10.30;99.90;;;;;;5051238;28;20036;-60
2023/01/05 02:26:21;;;;;;;29.23;6.30;;;10.30;99.90;;;;;;5062761;28;20115;-62
2023/01/05 02:29:11;;;;;;;30.40;7.70;;;10.30;99.90;;;;;;5068010;28;20067;-61
2023/01/05 02:31:54;;;;;;;27.15;7.32;;;10.30;99.90;;;;;;5062223;28;20044;-61
2023/01/05 02:34:22;;;;;;;30.63;7.80;;;10.30;99.90;;;;;;5061578;28;20112;-61
2023/01/05 02:36:59;;;;;;;29.45;7.57;;;10.20;99.90;;;;;;5042750;28;20048;-60
2023/01/05 02:39:59;;;;;;;29.27;7.18;;;10.30;99.90;;;;;;5062211;28;20029;-61
2023/01/05 02:42:27;;;;;;;23.75;6.53;;;10.30;99.90;;;;;;5071139;28;20040;-62
2023/01/05 02:44:52;;;;;;;26.35;6.20;;;10.30;99.90;;;;;;5063315;28;20029;-61
2023/01/05 02:47:23;;;;;;;22.80;6.60;;;10.30;99.90;;;;;;5064528;28;20094;-61
2023/01/05 02:49:52;;;;;;;30.75;7.15;;;10.30;99.90;;;;;;5068521;28;20502;-61
2023/01/05 02:52:19;;;;;;;28.40;6.50;;;10.30;99.90;;;;;;5070881;28;20080;-61
2023/01/05 02:54:54;;;;;;;23.15;6.57;;;10.30;99.90;;;;;;5068306;28;20055;-61
2023/01/05 02:57:45;;;;;;;25.85;6.15;;;10.30;99.90;;;;;;5063961;28;20097;-61
2023/01/05 03:00:15;;;;;;;25.05;6.65;;;10.20;99.90;;;;;;5062021;28;20361;-61
2023/01/05 03:02:47;;;;;;;23.00;5.88;;;10.30;99.90;;;;;;5059861;28;20032;-61
2023/01/05 03:05:24;;;;;;;30.42;7.32;;;10.30;99.90;;;;;;5063019;28;20094;-61
2023/01/05 03:07:52;;;;;;;25.05;6.43;;;10.30;99.90;;;;;;5062625;28;20051;-62
2023/01/05 03:15:57;;;;;;;23.65;5.80;;;10.30;99.90;;;;;;5059711;28;20549;-61
2023/01/05 03:18:25;;;;;;;25.67;6.65;;;10.20;99.90;;;;;;5059670;28;20044;-61
2023/01/05 03:20:53;;;;;;;21.90;5.88;;;10.20;99.90;;;;;;5064968;28;20043;-63
2023/01/05 03:37:53;;;;;;;27.00;6.65;;;10.20;99.90;;;;;;5063446;28;20106;-60
2023/01/05 03:40:25;;;;;;;22.40;6.03;;;10.30;99.90;;;;;;5062470;28;20437;-61
2023/01/05 03:42:50;;;;;;;25.02;6.15;;;10.30;99.90;;;;;;5057414;28;20760;-64
2023/01/05 03:45:18;;;;;;;22.75;5.28;;;10.30;99.90;;;;;;5065577;28;20414;-61
2023/01/05 03:47:43;;;;;;;29.08;6.47;;;10.30;99.90;;;;;;5063243;28;20041;-60
2023/01/05 03:50:09;;;;;;;25.30;6.68;;;10.20;99.90;;;;;;5073801;28;20406;-61
2023/01/05 03:52:35;;;;;;;27.45;6.93;;;10.30;99.90;;;;;;5065210;28;20037;-62
2023/01/05 03:55:00;;;;;;;23.42;6.10;;;10.20;99.90;;;;;;5060603;28;20036;-61
2023/01/05 03:57:26;;;;;;;26.00;6.30;;;10.20;99.90;;;;;;5068277;28;20047;-61
2023/01/05 03:59:51;;;;;;;24.52;6.25;;;10.20;99.90;;;;;;5062181;28;20415;-63
2023/01/05 04:02:17;;;;;;;28.23;6.45;;;10.20;99.90;;;;;;5067210;28;20041;-62
2023/01/05 04:04:43;;;;;;;25.38;5.82;;;10.30;99.90;;;;;;5061609;28;20044;-64
2023/01/05 04:07:08;;;;;;;22.42;6.13;;;10.20;99.90;;;;;;5067390;28;20040;-60
2023/01/05 04:09:34;;;;;;;26.23;5.80;;;10.30;99.90;;;;;;5071176;28;20467;-62
2023/01/05 04:12:00;;;;;;;22.75;6.57;;;10.30;99.90;;;;;;5072411;28;20425;-59
2023/01/05 04:14:25;;;;;;;21.25;5.15;;;10.30;99.90;;;;;;5074788;28;20053;-62
2023/01/05 04:16:51;;;;;;;24.58;5.70;;;10.30;99.90;;;;;;5069931;28;20545;-62
2023/01/05 04:19:16;;;;;;;21.05;6.10;;;10.30;99.90;;;;;;5068066;28;20041;-61
2023/01/05 04:21:42;;;;;;;25.25;5.63;;;10.30;99.90;;;;;;5070698;28;20350;-62
2023/01/05 04:24:11;;;;;;;23.20;6.10;;;10.30;99.90;;;;;;5071407;28;20045;-62
2023/01/05 04:26:38;;;;;;;28.15;6.22;;;10.30;99.90;;;;;;5076623;28;20033;-62
2023/01/05 04:29:04;;;;;;;23.65;6.00;;;10.30;99.90;;;;;;5078892;28;20496;-63
2023/01/05 04:31:30;;;;;;;25.75;6.93;;;10.30;99.90;;;;;;5108201;28;20063;-62
2023/01/05 04:33:56;;;;;;;21.48;5.47;;;10.30;99.90;;;;;;5090241;28;20411;-61
2023/01/05 04:36:21;;;;;;;26.23;6.07;;;10.30;99.90;;;;;;5108752;28;20036;-63
2023/01/05 04:38:47;;;;;;;27.05;6.25;;;10.30;99.90;;;;;;5103177;28;20040;-61
2023/01/05 04:41:12;;;;;;;26.38;5.95;;;10.30;99.90;;;;;;5088531;28;20039;-63
2023/01/05 04:43:38;;;;;;;25.75;6.97;;;10.20;99.90;;;;;;5087771;28;20043;-61
2023/01/05 04:46:04;;;;;;;23.20;5.78;;;10.20;99.90;;;;;;5088616;28;20170;-63
2023/01/05 04:48:30;;;;;;;28.00;6.20;;;10.30;99.90;;;;;;5087497;28;20047;-61
2023/01/05 04:50:56;;;;;;;26.73;5.97;;;10.30;99.90;;;;;;5077004;28;20472;-59
2023/01/05 04:53:22;;;;;;;25.55;6.95;;;10.30;99.90;;;;;;5110046;28;20072;-61
2023/01/05 04:55:48;;;;;;;23.45;6.10;;;10.20;99.90;;;;;;5080904;28;20036;-62
2023/01/05 04:58:14;;;;;;;23.92;6.20;;;10.30;99.90;;;;;;5076195;28;20044;-61
2023/01/05 05:00:39;;;;;;;24.75;7.10;;;10.30;99.90;;;;;;5073861;28;20094;-61
2023/01/05 05:03:05;;;;;;;29.77;6.88;;;10.30;99.90;;;;;;5101292;28;20048;-63
2023/01/05 05:05:30;;;;;;;27.80;6.43;;;10.30;99.90;;;;;;5083969;28;20367;-64
2023/01/05 05:07:56;;;;;;;23.45;5.63;;;10.30;99.90;;;;;;5087421;28;20367;-60
2023/01/05 05:10:21;;;;;;;25.38;6.07;;;10.30;99.90;;;;;;5095374;28;20330;-59
2023/01/05 05:12:47;;;;;;;27.20;5.60;;;10.30;99.90;;;;;;5111659;28;20059;-59
2023/01/05 05:15:13;;;;;;;23.52;6.07;;;10.30;99.90;;;;;;5099801;28;20055;-61
2023/01/05 05:17:38;;;;;;;21.67;5.60;;;10.20;99.90;;;;;;5109439;28;20031;-61
2023/01/05 05:20:05;;;;;;;29.33;6.95;;;10.30;99.90;;;;;;5074195;28;20066;-62
2023/01/05 05:22:30;;;;;;;22.48;5.70;;;10.20;99.90;;;;;;5087394;28;20373;-63
2023/01/05 05:24:57;;;;;;;25.40;5.75;;;10.20;99.90;;;;;;5096233;28;20031;-61
2023/01/05 05:27:23;;;;;;;22.30;6.28;;;10.30;99.90;;;;;;5091418;28;20478;-61
2023/01/05 05:29:49;;;;;;;28.90;6.03;;;10.30;99.90;;;;;;5066992;28;20508;-62
2023/01/05 05:32:14;;;;;;;23.17;5.78;;;10.30;99.90;;;;;;5064861;28;20484;-61
2023/01/05 05:34:40;;;;;;;27.70;6.70;;;10.30;99.90;;;;;;5076574;28;20071;-63
2023/01/05 05:37:05;;;;;;;28.42;6.85;;;10.30;99.90;;;;;;5065060;28;20365;-64
2023/01/05 05:39:31;;;;;;;25.27;6.63;;;10.30;99.90;;;;;;5067348;28;20040;-63
2023/01/05 05:41:56;;;;;;;24.17;6.15;;;10.20;99.90;;;;;;5075303;28;20432;-61
2023/01/05 05:44:22;;;;;;;23.00;5.90;;;10.30;99.90;;;;;;5068995;28;20114;-63
2023/01/05 05:46:48;;;;;;;31.75;7.07;;;10.30;99.90;;;;;;5063208;28;20028;-59
2023/01/05 05:49:13;;;;;;;22.55;5.40;;;10.30;99.90;;;;;;5074364;28;20047;-63
2023/01/05 05:51:39;;;;;;;28.08;6.30;;;10.30;99.90;;;;;;5069777;28;20040;-61
2023/01/05 05:54:04;;;;;;;24.13;5.78;;;10.30;99.90;;;;;;5053008;28;20338;-62
2023/01/05 05:56:30;;;;;;;27.67;5.90;;;10.30;99.90;;;;;;5070268;28;20048;-61
2023/01/05 05:58:56;;;;;;;20.33;5.45;;;10.30;99.90;;;;;;5074377;28;20049;-61
2023/01/05 06:01:21;;;;;;;28.08;6.00;;;10.30;99.90;;;;;;5069853;28;20044;-64
2023/01/05 06:03:47;;;;;;;26.67;5.35;;;10.30;99.90;;;;;;5074021;28;20032;-62
2023/01/05 06:06:12;;;;;;;28.50;7.07;;;10.20;99.90;;;;;;5067852;28;20078;-61
2023/01/05 06:08:38;;;;;;;23.83;5.93;;;10.20;99.90;;;;;;5072203;28;20127;-62
2023/01/05 06:11:03;;;;;;;29.63;7.07;;;10.30;99.90;;;;;;5065771;28;20083;-63
2023/01/05 06:13:29;;;;;;;22.83;5.50;;;10.20;99.90;;;;;;5068536;28;20032;-62
2023/01/05 06:15:54;;;;;;;24.38;5.85;;;10.30;99.90;;;;;;5053560;28;20037;-62
2023/01/05 06:18:20;;;;;;;26.25;6.25;;;10.20;99.90;;;;;;5065955;28;20044;-61
2023/01/05 06:20:45;;;;;;;22.70;5.47;;;10.20;99.90;;;;;;5069164;28;20043;-61
2023/01/05 06:23:11;;;;;;;25.85;6.07;;;10.30;99.90;;;;;;5075022;28;20119;-61
2023/01/05 06:25:37;;;;;;;22.98;5.72;;;10.30;99.90;;;;;;5075906;28;20078;-62
2023/01/05 06:28:08;;;;;;;25.63;5.70;;;10.30;99.90;;;;;;5069744;28;20041;-61
2023/01/05 06:30:34;;;;;;;22.25;5.90;;;10.30;99.90;;;;;;5082396;28;20047;-63
2023/01/05 06:33:00;;;;;;;22.02;5.88;;;10.30;99.90;;;;;;5073826;28;20134;-61
2023/01/05 06:35:25;;;;;;;24.58;6.05;;;10.20;99.90;;;;;;5081259;28;20050;-61
2023/01/05 06:37:51;;;;;;;21.15;5.32;;;10.20;99.90;;;;;;5083090;28;20036;-61
2023/01/05 06:40:16;;;;;;;19.83;5.45;;;10.30;99.90;;;;;;5081967;28;20032;-61
2023/01/05 06:42:42;;;;;;;28.85;5.57;;;10.30;99.90;;;;;;5079692;28;20032;-61
2023/01/05 06:45:12;;;;;;;20.95;5.63;;;10.20;99.90;;;;;;5080249;28;20111;-61
2023/01/05 06:47:37;;;;;;;20.50;5.18;;;10.30;99.90;;;;;;5077409;28;20358;-60
2023/01/05 06:50:03;;;;;;;24.75;5.55;;;10.20;99.90;;;;;;5075017;28;20119;-61
2023/01/05 06:52:29;;;;;;;28.30;6.28;;;10.30;99.90;;;;;;5076044;28;20036;-60
2023/01/05 06:54:54;;;;;;;20.13;5.75;;;10.30;99.90;;;;;;5078114;28;20036;-60
2023/01/05 06:57:20;;;;;;;21.80;5.20;;;10.30;99.90;;;;;;5090413;28;20048;-61
2023/01/05 06:59:45;;;;;;;29.25;6.00;;;10.30;99.90;;;;;;5076621;28;20036;-61
2023/01/05 07:02:16;;;;;;;21.77;5.30;;;10.30;99.90;;;;;;5080416;28;20036;-60
2023/01/05 07:04:42;;;;;;;18.63;4.63;;;10.20;99.90;;;;;;5076940;28;20362;-61
2023/01/05 07:07:16;;;;;;;22.35;5.65;;;10.20;99.90;;;;;;5079908;28;20040;-61
2023/01/05 07:09:43;;;;;;;24.25;5.63;;;10.10;99.90;;;;;;5081860;28;20120;-62
2023/01/05 07:12:09;;;;;;;24.67;5.05;;;10.00;99.90;;;;;;5059542;28;20381;-62
2023/01/05 07:14:34;;;;;;;25.35;5.40;;;10.10;99.90;;;;;;5067492;28;20037;-62
2023/01/05 07:17:01;;;;;;;19.90;5.05;;;10.00;99.90;;;;;;5087878;28;20384;-61
2023/01/05 07:19:26;;;;;;;27.52;5.95;;;10.00;99.90;;;;;;5079853;28;20132;-61
2023/01/05 07:21:52;;;;;;;19.08;5.70;;;10.10;99.90;;;;;;5086051;28;20039;-60
2023/01/05 07:24:17;;;;;;;26.02;5.57;;;10.10;99.90;;;;;;5079813;28;20035;-61
2023/01/05 07:26:43;;;;;;;24.27;6.30;;;10.00;99.90;;;;;;5071276;28;20071;-59
2023/01/05 07:29:09;;;;;;;22.02;5.32;;;10.10;99.90;;;;;;5094042;28;20074;-62
2023/01/05 07:31:42;;;;;;;28.50;6.38;;;10.10;99.90;;;;;;5093057;28;20070;-62
2023/01/05 07:34:10;;;;;;;23.02;5.63;;;10.10;99.90;;;;;;5098848;28;20040;-61
2023/01/05 07:36:35;;;;;;;30.65;6.60;;;10.10;99.90;;;;;;5104245;28;20057;-62
2023/01/05 07:39:02;;;;;;;24.13;5.85;;;10.10;99.90;;;;;;5101807;28;20039;-62
2023/01/05 07:41:28;;;;;;;20.55;4.57;;;10.10;99.90;;;;;;5069864;28;20418;-62
2023/01/05 07:43:53;;;;;;;22.52;6.25;;;10.10;99.90;;;;;;5098847;28;20489;-61
2023/01/05 07:46:19;;;;;;;24.42;5.38;;;10.10;99.90;;;;;;5100413;28;20344;-62
2023/01/05 07:48:44;;;;;;;22.55;5.38;;;10.10;99.90;;;;;;5099188;28;20036;-62
2023/01/05 07:51:10;;;;;;;22.27;5.97;;;10.10;99.90;;;;;;5095604;28;20043;-62
2023/01/05 07:53:37;;;;;;;24.00;6.18;;;10.20;99.90;;;;;;5093199;28;20395;-62
2023/01/05 07:56:06;;;;;;;24.50;5.88;;;10.10;99.90;;;;;;5106407;28;20467;-63
2023/01/05 07:58:32;;;;;;;24.98;5.75;;;10.10;99.90;;;;;;5099172;28;20380;-62
2023/01/05 08:01:06;;;;;;;26.13;6.32;;;10.10;99.90;;;;;;5093065;28;20449;-62
2023/01/05 08:03:32;;;;;;;27.43;6.30;;;10.20;99.90;;;;;;5098276;28;20039;-62
2023/01/05 08:05:57;;;;;;;27.48;6.22;;;10.10;99.90;;;;;;5100604;28;20040;-62
2023/01/05 08:08:23;;;;;;;31.75;6.35;;;10.20;99.90;;;;;;5098948;28;20414;-62
2023/01/05 08:10:48;;;;;;;24.08;5.68;;;10.20;99.90;;;;;;5094849;28;20044;-62
2023/01/05 08:15:59;;;;;;;23.52;5.68;;;10.20;99.90;;;;;;5096359;28;20125;-62
2023/01/05 08:18:26;;;;;;;30.98;6.32;;;10.10;99.90;;;;;;5099539;28;20032;-62
2023/01/05 08:20:56;;;;;;;22.30;6.25;;;10.10;99.90;;;;;;5102370;28;20035;-63
2023/01/05 08:23:24;;;;;;;26.20;6.53;;;10.10;99.90;;;;;;5098643;28;20343;-62
2023/01/05 08:25:50;;;;;;;24.92;5.90;;;10.10;99.90;;;;;;5099029;28;20067;-62
2023/01/05 08:28:15;;;;;;;24.52;6.25;;;10.10;99.90;;;;;;5094703;28;20145;-61
2023/01/05 08:30:42;;;;;;;22.13;5.80;;;10.10;99.90;;;;;;5080352;28;20110;-60
2023/01/05 08:33:08;;;;;;;29.75;6.50;;;10.10;99.90;;;;;;5078878;28;20111;-62
2023/01/05 08:35:38;;;;;;;25.70;6.22;;;10.10;99.90;;;;;;5076892;28;20123;-63
2023/01/05 08:38:03;;;;;;;28.25;6.28;;;10.10;99.90;;;;;;5078821;28;20040;-62
2023/01/05 08:40:29;;;;;;;25.63;6.47;;;10.20;99.90;;;;;;5084619;28;20102;-61
2023/01/05 08:42:56;;;;;;;26.98;6.25;;;10.20;99.90;;;;;;5079695;28;20024;-61
2023/01/05 08:45:21;;;;;;;31.27;7.13;;;10.10;99.90;;;;;;5082479;28;20028;-60
2023/01/05 08:47:47;;;;;;;29.08;6.88;;;10.20;99.90;;;;;;5058298;28;20143;-61
2023/01/05 08:50:12;;;;;;;27.35;6.65;;;10.10;99.90;;;;;;5075980;28;20124;-61
2023/01/05 08:52:39;;;;;;;26.15;6.80;;;10.10;99.90;;;;;;5074530;28;20107;-61
2023/01/05 08:55:06;;;;;;;26.05;6.70;;;10.20;99.90;;;;;;5067954;28;20044;-63
2023/01/05 08:57:32;;;;;;;27.58;7.60;;;10.20;99.90;;;;;;5063636;28;20037;-61
2023/01/05 08:59:58;;;;;;;25.80;6.95;;;10.20;99.90;;;;;;5082623;28;20047;-61
2023/01/05 09:02:23;;;;;;;27.48;8.48;;;10.20;99.90;;;;;;5059981;28;20134;-61
2023/01/05 09:04:49;;;;;;;29.70;8.55;;;10.20;99.90;;;;;;5075559;28;20062;-61
2023/01/05 09:07:14;;;;;;;31.85;10.18;;;10.10;99.90;;;;;;5087743;28;20459;-61
2023/01/05 09:09:40;;;;;;;30.40;8.40;;;10.20;99.90;;;;;;5076965;28;20036;-61
2023/01/05 09:12:06;;;;;;;30.40;8.27;;;10.20;99.90;;;;;;5077004;28;20048;-61
2023/01/05 09:14:31;;;;;;;31.08;8.38;;;10.20;99.90;;;;;;5090991;28;20048;-61
2023/01/05 09:16:57;;;;;;;23.15;6.75;;;10.20;99.90;;;;;;5073450;28;20036;-59
2023/01/05 09:19:23;;;;;;;26.05;6.68;;;10.20;99.90;;;;;;5055988;28;20036;-59
2023/01/05 09:21:49;;;;;;;27.42;6.40;;;10.20;99.90;;;;;;5083681;28;20373;-61
2023/01/05 09:24:14;;;;;;;23.38;5.75;;;10.20;99.90;;;;;;5085761;28;20028;-61
2023/01/05 09:26:41;;;;;;;26.20;6.55;;;10.20;99.90;;;;;;5078277;28;20032;-62
2023/01/05 09:29:09;;;;;;;23.30;6.05;;;10.20;99.90;;;;;;5093940;28;20052;-62
2023/01/05 09:31:35;;;;;;;23.80;6.40;;;10.30;99.90;;;;;;5090333;28;20102;-63
2023/01/05 09:34:00;;;;;;;27.55;5.88;;;10.30;99.90;;;;;;5080165;28;20032;-61
2023/01/05 09:36:26;;;;;;;24.42;5.90;;;10.30;99.90;;;;;;5079848;28;20036;-63
2023/01/05 09:38:53;;;;;;;20.77;5.90;;;10.30;99.90;;;;;;5090390;28;20044;-63
2023/01/05 09:41:32;;;;;;;22.98;5.22;;;10.30;99.90;;;;;;5081610;28;20331;-59
2023/01/05 09:44:05;;;;;;;20.38;5.53;;;10.30;99.90;;;;;;5081184;28;20029;-61
2023/01/05 09:46:41;;;;;;;20.52;5.18;;;10.30;99.90;;;;;;5083792;28;20119;-62
2023/01/05 09:49:12;;;;;;;21.25;5.55;;;10.30;99.90;;;;;;5086980;28;20039;-61
2023/01/05 09:51:39;;;;;;;25.80;6.40;;;10.30;99.90;;;;;;5087140;28;20090;-62
2023/01/05 09:54:04;;;;;;;20.88;5.30;;;10.40;99.90;;;;;;5086367;28;20068;-59
2023/01/05 09:56:37;;;;;;;21.25;5.10;;;10.30;99.90;;;;;;5089999;28;20617;-61
2023/01/05 09:59:17;;;;;;;20.92;5.28;;;10.40;99.90;;;;;;5077367;28;20503;-61
2023/01/05 10:01:44;;;;;;;19.50;6.65;;;10.40;99.90;;;;;;5080030;28;20135;-60
2023/01/05 10:04:15;;;;;;;19.52;5.32;;;10.40;99.90;;;;;;5081543;28;20033;-61
2023/01/05 10:06:45;;;;;;;22.40;5.07;;;10.40;99.90;;;;;;5085093;28;20028;-61
2023/01/05 10:09:21;;;;;;;23.73;5.25;;;10.40;99.90;;;;;;5088906;28;20044;-61
2023/01/05 10:14:46;;;;;;;21.02;5.75;;;10.50;99.90;;;;;;5078059;28;20043;-63
2023/01/05 10:17:16;;;;;;;22.33;5.60;;;10.50;99.90;;;;;;5080851;28;20041;-61
2023/01/05 10:19:42;;;;;;;28.98;7.13;;;10.50;99.90;;;;;;5082821;28;20031;-61
2023/01/05 10:22:39;;;;;;;27.92;7.47;;;10.50;99.90;;;;;;5076420;28;20361;-61
2023/01/05 10:25:31;;;;;;;26.63;7.47;;;10.50;99.90;;;;;;5075106;28;20045;-62
2023/01/05 10:28:21;;;;;;;28.85;7.63;;;10.50;99.90;;;;;;5081836;28;20093;-61
2023/01/05 10:30:58;;;;;;;30.90;7.90;;;10.50;99.90;;;;;;5112908;28;20066;-61
2023/01/05 10:33:53;;;;;;;27.20;8.07;;;10.50;99.90;;;;;;5098200;28;20048;-61
2023/01/05 10:36:49;;;;;;;26.83;8.30;;;10.50;99.90;;;;;;5089414;28;20102;-61
2023/01/05 10:39:33;;;;;;;28.95;9.43;;;10.60;99.90;;;;;;5078344;28;20075;-61
2023/01/05 10:42:09;;;;;;;26.73;8.93;;;10.60;99.90;;;;;;5085985;28;20349;-61
2023/01/05 10:44:46;;;;;;;27.65;8.32;;;10.70;99.90;;;;;;5084146;28;20083;-61
2023/01/05 10:47:12;;;;;;;27.40;9.13;;;10.70;99.90;;;;;;5109967;28;20097;-60
2023/01/05 10:49:41;;;;;;;25.85;8.50;;;10.70;99.90;;;;;;5105911;28;20039;-61
2023/01/05 10:52:13;;;;;;;27.38;7.93;;;10.70;99.90;;;;;;5105153;28;20476;-62
2023/01/05 10:54:43;;;;;;;25.35;7.32;;;10.80;99.90;;;;;;5080268;28;20361;-63
2023/01/05 10:57:27;;;;;;;23.30;7.57;;;10.70;99.90;;;;;;5090458;28;20037;-61
2023/01/05 10:59:58;;;;;;;28.63;8.73;;;10.70;99.90;;;;;;5099429;28;20039;-61
2023/01/05 11:02:30;;;;;;;26.70;8.30;;;10.70;99.90;;;;;;5090982;28;20047;-61
2023/01/05 11:05:06;;;;;;;29.33;8.73;;;10.60;99.90;;;;;;5094966;28;20055;-61
2023/01/05 11:07:46;;;;;;;30.23;9.52;;;10.70;99.90;;;;;;5088537;28;20083;-61
2023/01/05 11:10:29;;;;;;;34.10;10.20;;;10.70;99.90;;;;;;5089012;28;20104;-59
2023/01/05 11:13:14;;;;;;;29.38;8.73;;;10.70;99.90;;;;;;5075727;28;20072;-61
2023/01/05 11:15:44;;;;;;;27.77;8.50;;;10.70;99.90;;;;;;5088503;28;20032;-61
2023/01/05 11:18:29;;;;;;;26.35;8.52;;;10.70;99.90;;;;;;5101977;28;20105;-61
2023/01/05 11:21:05;;;;;;;25.00;7.93;;;10.70;99.90;;;;;;5085633;28;20040;-63
2023/01/05 11:23:40;;;;;;;23.65;7.25;;;10.70;99.90;;;;;;5093950;28;20039;-63
2023/01/05 11:26:18;;;;;;;29.58;7.57;;;10.60;99.90;;;;;;5091139;28;20079;-62
2023/01/05 11:28:57;;;;;;;29.35;7.15;;;10.70;99.90;;;;;;5098653;28;20062;-61
2023/01/05 11:31:36;;;;;;;22.48;5.82;;;10.70;99.90;;;;;;5089672;28;20074;-61
2023/01/05 11:34:27;;;;;;;21.75;5.70;;;10.70;99.90;;;;;;5087468;28;20464;-61
2023/01/05 11:36:54;;;;;;;24.10;4.97;;;10.70;99.90;;;;;;5074246;28;20055;-59
2023/01/05 11:39:46;;;;;;;26.90;6.05;;;10.60;99.90;;;;;;5095664;28;20114;-62
2023/01/05 11:42:13;;;;;;;21.55;5.75;;;10.50;99.90;;;;;;5082540;28;20056;-62
2023/01/05 11:44:42;;;;;;;23.48;5.47;;;10.50;99.90;;;;;;5089743;28;20031;-60
2023/01/05 11:47:16;;;;;;;21.15;5.38;;;10.50;99.90;;;;;;5090352;28;20106;-61
2023/01/05 11:49:42;;;;;;;25.13;5.50;;;10.50;99.90;;;;;;5089994;28;20520;-63
2023/01/05 11:52:25;;;;;;;18.95;4.60;;;10.40;99.90;;;;;;5081797;28;20064;-62
2023/01/05 11:54:51;;;;;;;22.63;5.78;;;10.50;99.90;;;;;;5096643;28;20475;-61
2023/01/05 11:57:23;;;;;;;21.65;5.10;;;10.40;99.90;;;;;;5103020;28;20039;-62
2023/01/05 11:59:50;;;;;;;24.05;5.18;;;10.50;99.90;;;;;;5104757;28;20097;-60
2023/01/05 12:02:29;;;;;;;20.50;5.45;;;10.50;99.90;;;;;;5091233;28;20040;-60
2023/01/05 12:05:16;;;;;;;22.85;5.47;;;10.50;99.90;;;;;;5092316;28;20028;-59
2023/01/05 12:07:50;;;;;;;18.70;5.22;;;10.50;99.90;;;;;;5087753;28;20105;-61
2023/01/05 12:10:54;;;;;;;20.10;5.32;;;10.50;99.90;;;;;;5091640;28;20039;-61
2023/01/05 12:13:57;;;;;;;24.58;6.50;;;10.60;99.90;;;;;;5041325;28;20488;-58
2023/01/05 12:16:54;;;;;;;19.85;5.57;;;10.60;99.90;;;;;;5084693;28;20050;-62
2023/01/05 12:19:57;;;;;;;21.25;5.55;;;10.60;99.90;;;;;;5080871;28;20079;-60
2023/01/05 12:22:41;;;;;;;22.90;5.80;;;10.70;99.90;;;;;;5102463;28;20059;-62
2023/01/05 12:25:33;;;;;;;20.92;5.88;;;10.70;99.90;;;;;;5094089;28;20459;-63
2023/01/05 12:28:23;;;;;;;20.13;5.95;;;10.70;99.90;;;;;;5087160;28;20032;-62
2023/01/05 12:31:36;;;;;;;28.10;6.70;;;10.70;99.90;;;;;;5096301;28;20080;-61
2023/01/05 12:34:39;;;;;;;24.30;5.85;;;10.70;99.90;;;;;;5086127;28;20044;-61
2023/01/05 12:37:18;;;;;;;20.73;5.00;;;10.70;99.90;;;;;;5074607;28;20063;-60
2023/01/05 12:40:10;;;;;;;21.15;5.22;;;10.70;99.90;;;;;;5109956;28;20032;-62
2023/01/05 12:42:56;;;;;;;26.05;5.85;;;10.70;99.90;;;;;;5093819;28;20055;-61
2023/01/05 12:45:27;;;;;;;22.15;6.60;;;10.80;99.90;;;;;;5100624;28;20111;-61
2023/01/05 12:48:04;;;;;;;27.92;8.27;;;10.70;99.90;;;;;;5111700;28;20404;-62
2023/01/05 12:50:46;;;;;;;28.23;7.72;;;10.80;99.90;;;;;;5094381;28;20115;-62
2023/01/05 12:53:35;;;;;;;25.95;8.13;;;10.90;99.90;;;;;;5087998;28;20120;-60
2023/01/05 12:56:30;;;;;;;26.70;7.75;;;10.80;99.90;;;;;;5086674;28;20036;-61
2023/01/05 12:59:13;;;;;;;21.95;6.90;;;10.80;99.90;;;;;;5093453;28;20036;-62
2023/01/05 13:02:14;;;;;;;22.67;6.22;;;10.80;99.90;;;;;;5074499;28;20127;-61
2023/01/05 13:04:48;;;;;;;26.90;6.60;;;10.80;99.90;;;;;;5061966;28;20044;-61
2023/01/05 13:07:23;;;;;;;22.70;6.10;;;10.70;99.90;;;;;;5099992;28;20048;-61
2023/01/05 13:09:56;;;;;;;24.90;7.65;;;10.70;99.90;;;;;;5105436;28;20039;-61
2023/01/05 13:12:22;;;;;;;20.90;7.03;;;10.80;99.90;;;;;;5094166;28;20235;-61
2023/01/05 13:15:02;;;;;;;22.98;6.28;;;10.70;99.90;;;;;;5096317;28;20051;-61
2023/01/05 13:17:33;;;;;;;23.05;6.38;;;10.70;99.90;;;;;;5090291;28;20042;-61
2023/01/05 13:20:15;;;;;;;30.70;7.82;;;10.70;99.90;;;;;;5089633;28;20036;-61
2023/01/05 13:22:43;;;;;;;24.95;6.60;;;10.70;99.90;;;;;;5092416;28;20036;-62
2023/01/05 13:25:21;;;;;;;27.52;7.00;;;10.70;99.90;;;;;;5096716;28;20115;-61
2023/01/05 13:27:46;;;;;;;29.33;7.07;;;10.70;99.90;;;;;;5109307;28;20092;-61
2023/01/05 13:30:25;;;;;;;22.15;5.95;;;10.70;99.90;;;;;;5099354;28;20431;-61